sensor_id;sensor_type;location;lat;lon;timestamp;pressure;altitude;pressure_sealevel;temperature;humidity
6134;BME280;3098;42.678;23.364;2024-03-22T00:01:58;95035.03;;;4.18;51.49
6134;BME280;3098;42.678;23.364;2024-03-22T00:04:26;95037.91;;;4.11;51.53
6134;BME280;3098;42.678;23.364;2024-03-22T00:06:52;95033.44;;;4.06;51.79
6134;BME280;3098;42.678;23.364;2024-03-22T00:09:18;95037.63;;;3.97;51.55
6134;BME280;3098;42.678;23.364;2024-03-22T00:11:44;95031.59;;;3.87;52.83
6134;BME280;3098;42.678;23.364;2024-03-22T00:14:10;95035.72;;;3.77;52.92
6134;BME280;3098;42.678;23.364;2024-03-22T00:16:36;95038.81;;;3.64;52.85
6134;BME280;3098;42.678;23.364;2024-03-22T00:19:02;95038.31;;;3.62;53.66
6134;BME280;3098;42.678;23.364;2024-03-22T00:21:28;95038.78;;;3.54;53.25
6134;BME280;3098;42.678;23.364;2024-03-22T00:23:54;95034.34;;;3.44;53.30
6134;BME280;3098;42.678;23.364;2024-03-22T00:26:20;95037.19;;;3.43;52.64
6134;BME280;3098;42.678;23.364;2024-03-22T00:28:46;95035.13;;;3.45;52.95
6134;BME280;3098;42.678;23.364;2024-03-22T00:31:12;95027.56;;;3.48;52.45
6134;BME280;3098;42.678;23.364;2024-03-22T00:33:38;95033.00;;;3.47;52.99
6134;BME280;3098;42.678;23.364;2024-03-22T00:36:04;95035.13;;;3.45;53.17
6134;BME280;3098;42.678;23.364;2024-03-22T00:38:29;95038.75;;;3.39;53.22
6134;BME280;3098;42.678;23.364;2024-03-22T00:40:55;95039.78;;;3.38;53.86
6134;BME280;3098;42.678;23.364;2024-03-22T00:43:20;95044.25;;;3.47;53.70
6134;BME280;3098;42.678;23.364;2024-03-22T00:45:47;95043.22;;;3.53;53.60
6134;BME280;3098;42.678;23.364;2024-03-22T00:48:12;95034.88;;;3.51;53.16
6134;BME280;3098;42.678;23.364;2024-03-22T00:50:38;95039.00;;;3.37;53.54
6134;BME280;3098;42.678;23.364;2024-03-22T00:53:03;95023.28;;;3.27;52.82
6134;BME280;3098;42.678;23.364;2024-03-22T00:55:30;95027.75;;;3.31;54.11
6134;BME280;3098;42.678;23.364;2024-03-22T00:57:56;95028.00;;;3.35;54.09
6134;BME280;3098;42.678;23.364;2024-03-22T01:00:22;95025.69;;;3.39;55.47
6134;BME280;3098;42.678;23.364;2024-03-22T01:02:49;95028.56;;;3.47;55.39
6134;BME280;3098;42.678;23.364;2024-03-22T01:05:14;95031.72;;;3.49;54.78
6134;BME280;3098;42.678;23.364;2024-03-22T01:07:40;95027.81;;;3.52;54.54
6134;BME280;3098;42.678;23.364;2024-03-22T01:10:06;95032.28;;;3.51;55.48
6134;BME280;3098;42.678;23.364;2024-03-22T01:12:31;95034.06;;;3.46;55.99
6134;BME280;3098;42.678;23.364;2024-03-22T01:14:57;95035.06;;;3.40;56.61
6134;BME280;3098;42.678;23.364;2024-03-22T01:17:23;95032.00;;;3.48;56.41
6134;BME280;3098;42.678;23.364;2024-03-22T01:19:49;95029.06;;;3.39;56.41
6134;BME280;3098;42.678;23.364;2024-03-22T01:22:16;95032.72;;;3.38;55.16
6134;BME280;3098;42.678;23.364;2024-03-22T01:24:43;95038.19;;;3.37;55.37
6134;BME280;3098;42.678;23.364;2024-03-22T01:27:09;95034.56;;;3.38;54.63
6134;BME280;3098;42.678;23.364;2024-03-22T01:29:34;95027.97;;;3.30;55.53
6134;BME280;3098;42.678;23.364;2024-03-22T01:32:01;95034.28;;;3.34;55.10
6134;BME280;3098;42.678;23.364;2024-03-22T01:34:26;95036.63;;;3.35;54.21
6134;BME280;3098;42.678;23.364;2024-03-22T01:36:52;95032.69;;;3.28;54.43
6134;BME280;3098;42.678;23.364;2024-03-22T01:39:21;95035.81;;;3.30;54.24
6134;BME280;3098;42.678;23.364;2024-03-22T01:41:50;95027.50;;;3.38;53.67
6134;BME280;3098;42.678;23.364;2024-03-22T01:44:16;95034.06;;;3.46;53.75
6134;BME280;3098;42.678;23.364;2024-03-22T01:46:43;95035.13;;;3.50;53.60
6134;BME280;3098;42.678;23.364;2024-03-22T01:49:11;95033.28;;;3.45;53.11
6134;BME280;3098;42.678;23.364;2024-03-22T01:51:39;95035.91;;;3.50;53.64
6134;BME280;3098;42.678;23.364;2024-03-22T01:54:06;95038.50;;;3.50;54.20
6134;BME280;3098;42.678;23.364;2024-03-22T01:56:34;95037.75;;;3.55;54.21
6134;BME280;3098;42.678;23.364;2024-03-22T01:59:01;95036.44;;;3.52;54.20
6134;BME280;3098;42.678;23.364;2024-03-22T02:01:27;95040.06;;;3.46;55.68
6134;BME280;3098;42.678;23.364;2024-03-22T02:03:53;95043.47;;;3.42;55.12
6134;BME280;3098;42.678;23.364;2024-03-22T02:06:18;95043.94;;;3.33;57.25
6134;BME280;3098;42.678;23.364;2024-03-22T02:08:44;95038.19;;;3.31;57.38
6134;BME280;3098;42.678;23.364;2024-03-22T02:11:09;95037.88;;;3.23;56.88
6134;BME280;3098;42.678;23.364;2024-03-22T02:13:35;95039.13;;;3.10;57.38
6134;BME280;3098;42.678;23.364;2024-03-22T02:16:05;95034.41;;;3.07;57.71
6134;BME280;3098;42.678;23.364;2024-03-22T02:18:31;95024.47;;;3.04;57.81
6134;BME280;3098;42.678;23.364;2024-03-22T02:20:57;95036.19;;;3.01;58.43
6134;BME280;3098;42.678;23.364;2024-03-22T02:25:58;95038.03;;;3.01;57.87
6134;BME280;3098;42.678;23.364;2024-03-22T02:28:23;95040.91;;;2.99;58.44
6134;BME280;3098;42.678;23.364;2024-03-22T02:30:49;95039.78;;;2.85;59.59
6134;BME280;3098;42.678;23.364;2024-03-22T02:33:15;95047.06;;;2.83;58.65
6134;BME280;3098;42.678;23.364;2024-03-22T02:35:40;95047.56;;;2.80;59.88
6134;BME280;3098;42.678;23.364;2024-03-22T02:38:06;95049.88;;;2.76;58.22
6134;BME280;3098;42.678;23.364;2024-03-22T02:40:32;95045.72;;;2.80;59.17
6134;BME280;3098;42.678;23.364;2024-03-22T02:42:57;95049.66;;;2.83;60.49
6134;BME280;3098;42.678;23.364;2024-03-22T02:45:22;95049.16;;;2.81;60.08
6134;BME280;3098;42.678;23.364;2024-03-22T02:47:48;95058.25;;;2.78;61.02
6134;BME280;3098;42.678;23.364;2024-03-22T02:50:13;95054.38;;;2.81;59.95
6134;BME280;3098;42.678;23.364;2024-03-22T02:52:39;95064.75;;;2.76;60.41
6134;BME280;3098;42.678;23.364;2024-03-22T02:55:05;95066.00;;;2.68;60.25
6134;BME280;3098;42.678;23.364;2024-03-22T02:57:31;95070.38;;;2.57;60.26
6134;BME280;3098;42.678;23.364;2024-03-22T02:59:56;95070.31;;;2.52;60.77
6134;BME280;3098;42.678;23.364;2024-03-22T03:02:22;95077.81;;;2.44;61.28
6134;BME280;3098;42.678;23.364;2024-03-22T03:04:48;95077.25;;;2.36;60.07
6134;BME280;3098;42.678;23.364;2024-03-22T03:07:14;95080.31;;;2.28;60.28
6134;BME280;3098;42.678;23.364;2024-03-22T03:09:39;95077.34;;;2.20;59.52
6134;BME280;3098;42.678;23.364;2024-03-22T03:12:05;95085.91;;;2.15;60.27
6134;BME280;3098;42.678;23.364;2024-03-22T03:14:31;95087.16;;;2.07;60.92
6134;BME280;3098;42.678;23.364;2024-03-22T03:16:56;95087.09;;;2.02;59.17
6134;BME280;3098;42.678;23.364;2024-03-22T03:19:22;95089.16;;;2.00;59.60
6134;BME280;3098;42.678;23.364;2024-03-22T03:21:48;95088.34;;;2.00;59.67
6134;BME280;3098;42.678;23.364;2024-03-22T03:24:13;95091.78;;;2.00;59.54
6134;BME280;3098;42.678;23.364;2024-03-22T03:26:39;95092.47;;;1.96;59.67
6134;BME280;3098;42.678;23.364;2024-03-22T03:29:05;95087.72;;;1.87;60.23
6134;BME280;3098;42.678;23.364;2024-03-22T03:31:31;95091.84;;;1.83;61.69
6134;BME280;3098;42.678;23.364;2024-03-22T03:33:56;95086.69;;;1.66;61.65
6134;BME280;3098;42.678;23.364;2024-03-22T03:36:22;95100.66;;;1.55;61.01
6134;BME280;3098;42.678;23.364;2024-03-22T03:38:48;95098.44;;;1.47;62.99
6134;BME280;3098;42.678;23.364;2024-03-22T03:41:13;95106.50;;;1.46;63.37
6134;BME280;3098;42.678;23.364;2024-03-22T03:43:39;95097.84;;;1.40;63.15
6134;BME280;3098;42.678;23.364;2024-03-22T03:46:04;95101.94;;;1.36;63.57
6134;BME280;3098;42.678;23.364;2024-03-22T03:48:30;95108.38;;;1.28;63.27
6134;BME280;3098;42.678;23.364;2024-03-22T03:50:56;95121.63;;;1.27;63.23
6134;BME280;3098;42.678;23.364;2024-03-22T03:53:24;95120.59;;;1.28;63.87
6134;BME280;3098;42.678;23.364;2024-03-22T03:55:50;95113.25;;;1.25;64.28
6134;BME280;3098;42.678;23.364;2024-03-22T03:58:16;95110.34;;;1.21;64.42
6134;BME280;3098;42.678;23.364;2024-03-22T04:00:43;95110.59;;;1.19;63.39
6134;BME280;3098;42.678;23.364;2024-03-22T04:03:08;95116.44;;;1.27;62.37
6134;BME280;3098;42.678;23.364;2024-03-22T04:05:34;95110.19;;;1.28;64.20
6134;BME280;3098;42.678;23.364;2024-03-22T04:07:59;95112.44;;;1.41;62.88
6134;BME280;3098;42.678;23.364;2024-03-22T04:10:25;95114.38;;;1.51;62.37
6134;BME280;3098;42.678;23.364;2024-03-22T04:12:50;95118.63;;;1.57;61.90
6134;BME280;3098;42.678;23.364;2024-03-22T04:15:16;95122.00;;;1.57;61.80
6134;BME280;3098;42.678;23.364;2024-03-22T04:17:41;95121.84;;;1.64;61.79
6134;BME280;3098;42.678;23.364;2024-03-22T04:20:07;95116.63;;;1.64;62.51
6134;BME280;3098;42.678;23.364;2024-03-22T04:22:34;95129.81;;;1.57;60.91
6134;BME280;3098;42.678;23.364;2024-03-22T04:24:59;95129.50;;;1.54;61.38
6134;BME280;3098;42.678;23.364;2024-03-22T04:27:25;95135.81;;;1.58;61.41
6134;BME280;3098;42.678;23.364;2024-03-22T04:29:50;95138.38;;;1.53;62.81
6134;BME280;3098;42.678;23.364;2024-03-22T04:32:16;95136.25;;;1.50;61.69
6134;BME280;3098;42.678;23.364;2024-03-22T04:34:42;95137.03;;;1.50;62.33
6134;BME280;3098;42.678;23.364;2024-03-22T04:37:08;95138.38;;;1.53;62.66
6134;BME280;3098;42.678;23.364;2024-03-22T04:39:34;95148.31;;;1.56;61.59
6134;BME280;3098;42.678;23.364;2024-03-22T04:42:00;95145.09;;;1.71;61.02
6134;BME280;3098;42.678;23.364;2024-03-22T04:44:26;95143.47;;;1.86;61.06
6134;BME280;3098;42.678;23.364;2024-03-22T04:46:52;95146.59;;;2.10;60.38
6134;BME280;3098;42.678;23.364;2024-03-22T04:49:18;95150.31;;;2.14;60.20
6134;BME280;3098;42.678;23.364;2024-03-22T04:51:43;95146.22;;;2.24;59.76
6134;BME280;3098;42.678;23.364;2024-03-22T04:54:09;95145.44;;;2.50;59.33
6134;BME280;3098;42.678;23.364;2024-03-22T04:56:34;95149.50;;;2.68;58.46
6134;BME280;3098;42.678;23.364;2024-03-22T04:59:00;95157.16;;;2.80;58.49
6134;BME280;3098;42.678;23.364;2024-03-22T05:01:25;95154.34;;;2.86;57.72
6134;BME280;3098;42.678;23.364;2024-03-22T05:03:51;95154.69;;;2.95;57.51
6134;BME280;3098;42.678;23.364;2024-03-22T05:06:17;95158.38;;;2.99;58.34
6134;BME280;3098;42.678;23.364;2024-03-22T05:08:43;95158.75;;;3.13;57.43
6134;BME280;3098;42.678;23.364;2024-03-22T05:11:09;95160.03;;;3.16;57.42
6134;BME280;3098;42.678;23.364;2024-03-22T05:13:34;95162.78;;;3.31;57.95
6134;BME280;3098;42.678;23.364;2024-03-22T05:16:00;95162.28;;;3.34;57.87
6134;BME280;3098;42.678;23.364;2024-03-22T05:18:26;95165.69;;;3.40;58.21
6134;BME280;3098;42.678;23.364;2024-03-22T05:20:51;95164.97;;;3.54;56.70
6134;BME280;3098;42.678;23.364;2024-03-22T05:23:17;95159.25;;;3.57;55.62
6134;BME280;3098;42.678;23.364;2024-03-22T05:25:43;95171.94;;;3.81;55.41
6134;BME280;3098;42.678;23.364;2024-03-22T05:28:09;95174.81;;;3.85;54.74
6134;BME280;3098;42.678;23.364;2024-03-22T05:30:34;95181.16;;;3.94;53.93
6134;BME280;3098;42.678;23.364;2024-03-22T05:33:00;95178.03;;;4.02;53.55
6134;BME280;3098;42.678;23.364;2024-03-22T05:35:27;95176.28;;;4.28;53.66
6134;BME280;3098;42.678;23.364;2024-03-22T05:37:52;95173.50;;;4.91;52.43
6134;BME280;3098;42.678;23.364;2024-03-22T05:40:18;95182.16;;;7.75;45.08
6134;BME280;3098;42.678;23.364;2024-03-22T05:42:43;95187.63;;;10.91;36.46
6134;BME280;3098;42.678;23.364;2024-03-22T05:45:09;95185.66;;;12.35;33.60
6134;BME280;3098;42.678;23.364;2024-03-22T05:47:35;95192.03;;;15.09;30.00
6134;BME280;3098;42.678;23.364;2024-03-22T05:50:03;95184.13;;;16.98;25.74
6134;BME280;3098;42.678;23.364;2024-03-22T05:52:28;95190.88;;;17.20;25.20
6134;BME280;3098;42.678;23.364;2024-03-22T05:54:54;95202.31;;;18.88;23.17
6134;BME280;3098;42.678;23.364;2024-03-22T05:57:20;95200.22;;;20.40;21.69
6134;BME280;3098;42.678;23.364;2024-03-22T05:59:46;95209.06;;;20.90;20.83
6134;BME280;3098;42.678;23.364;2024-03-22T06:02:13;95206.38;;;19.36;21.31
6134;BME280;3098;42.678;23.364;2024-03-22T06:04:40;95205.00;;;21.63;18.93
6134;BME280;3098;42.678;23.364;2024-03-22T06:07:06;95206.72;;;21.45;18.98
6134;BME280;3098;42.678;23.364;2024-03-22T06:09:32;95208.91;;;21.36;19.38
6134;BME280;3098;42.678;23.364;2024-03-22T06:12:13;95202.03;;;20.82;19.62
6134;BME280;3098;42.678;23.364;2024-03-22T06:14:42;95205.41;;;22.44;17.59
6134;BME280;3098;42.678;23.364;2024-03-22T06:17:08;95208.41;;;22.35;18.32
6134;BME280;3098;42.678;23.364;2024-03-22T06:19:34;95210.97;;;23.20;17.09
6134;BME280;3098;42.678;23.364;2024-03-22T06:21:59;95204.47;;;21.84;17.95
6134;BME280;3098;42.678;23.364;2024-03-22T06:24:25;95206.38;;;21.50;18.93
6134;BME280;3098;42.678;23.364;2024-03-22T06:26:50;95209.94;;;22.32;18.35
6134;BME280;3098;42.678;23.364;2024-03-22T06:29:16;95200.75;;;21.02;19.96
6134;BME280;3098;42.678;23.364;2024-03-22T06:31:42;95211.00;;;22.24;17.80
6134;BME280;3098;42.678;23.364;2024-03-22T06:34:08;95198.81;;;21.97;17.89
6134;BME280;3098;42.678;23.364;2024-03-22T06:36:33;95211.53;;;23.69;17.05
6134;BME280;3098;42.678;23.364;2024-03-22T06:38:59;95207.28;;;22.91;17.91
6134;BME280;3098;42.678;23.364;2024-03-22T06:41:26;95214.66;;;23.78;16.67
6134;BME280;3098;42.678;23.364;2024-03-22T06:43:53;95212.97;;;22.75;18.05
6134;BME280;3098;42.678;23.364;2024-03-22T06:46:18;95217.94;;;23.36;17.28
6134;BME280;3098;42.678;23.364;2024-03-22T06:48:45;95225.06;;;23.79;16.80
6134;BME280;3098;42.678;23.364;2024-03-22T06:51:11;95223.38;;;23.46;17.02
6134;BME280;3098;42.678;23.364;2024-03-22T06:53:37;95228.28;;;24.60;16.51
6134;BME280;3098;42.678;23.364;2024-03-22T06:56:04;95226.88;;;23.54;16.73
6134;BME280;3098;42.678;23.364;2024-03-22T06:58:30;95230.94;;;24.17;16.42
6134;BME280;3098;42.678;23.364;2024-03-22T07:00:55;95234.59;;;23.48;16.72
6134;BME280;3098;42.678;23.364;2024-03-22T07:03:21;95235.50;;;23.88;16.59
6134;BME280;3098;42.678;23.364;2024-03-22T07:05:47;95231.81;;;22.75;17.77
6134;BME280;3098;42.678;23.364;2024-03-22T07:08:13;95237.69;;;23.54;17.32
6134;BME280;3098;42.678;23.364;2024-03-22T07:10:39;95239.06;;;25.10;15.54
6134;BME280;3098;42.678;23.364;2024-03-22T07:13:05;95236.03;;;23.28;17.56
6134;BME280;3098;42.678;23.364;2024-03-22T07:15:31;95237.16;;;23.27;18.14
6134;BME280;3098;42.678;23.364;2024-03-22T07:17:58;95242.25;;;22.80;17.56
6134;BME280;3098;42.678;23.364;2024-03-22T07:20:25;95245.97;;;23.13;18.07
6134;BME280;3098;42.678;23.364;2024-03-22T07:22:50;95233.53;;;23.71;16.56
6134;BME280;3098;42.678;23.364;2024-03-22T07:25:16;95230.03;;;22.05;18.55
6134;BME280;3098;42.678;23.364;2024-03-22T07:27:42;95234.09;;;21.88;18.73
6134;BME280;3098;42.678;23.364;2024-03-22T07:30:07;95234.06;;;22.70;17.94
6134;BME280;3098;42.678;23.364;2024-03-22T07:32:34;95229.44;;;24.38;15.92
6134;BME280;3098;42.678;23.364;2024-03-22T07:34:59;95230.97;;;24.74;15.40
6134;BME280;3098;42.678;23.364;2024-03-22T07:37:25;95227.50;;;24.88;15.23
6134;BME280;3098;42.678;23.364;2024-03-22T07:39:51;95236.38;;;25.10;15.46
6134;BME280;3098;42.678;23.364;2024-03-22T07:42:16;95242.13;;;25.34;15.07
6134;BME280;3098;42.678;23.364;2024-03-22T07:44:42;95240.91;;;27.27;13.52
6134;BME280;3098;42.678;23.364;2024-03-22T07:47:08;95242.38;;;28.03;12.40
6134;BME280;3098;42.678;23.364;2024-03-22T07:49:34;95239.69;;;25.68;14.84
6134;BME280;3098;42.678;23.364;2024-03-22T07:52:00;95228.25;;;25.28;15.82
6134;BME280;3098;42.678;23.364;2024-03-22T07:54:26;95237.94;;;24.36;15.68
6134;BME280;3098;42.678;23.364;2024-03-22T07:56:51;95239.41;;;26.22;14.30
6134;BME280;3098;42.678;23.364;2024-03-22T07:59:17;95227.09;;;25.15;15.33
6134;BME280;3098;42.678;23.364;2024-03-22T08:01:44;95239.47;;;24.98;15.22
6134;BME280;3098;42.678;23.364;2024-03-22T08:04:14;95235.44;;;25.67;14.85
6134;BME280;3098;42.678;23.364;2024-03-22T08:06:40;95242.94;;;25.02;15.39
6134;BME280;3098;42.678;23.364;2024-03-22T08:09:06;95243.22;;;23.09;17.49
6134;BME280;3098;42.678;23.364;2024-03-22T08:11:38;95246.63;;;23.72;16.95
6134;BME280;3098;42.678;23.364;2024-03-22T08:14:03;95239.78;;;25.43;15.06
6134;BME280;3098;42.678;23.364;2024-03-22T08:16:32;95242.00;;;25.69;15.39
6134;BME280;3098;42.678;23.364;2024-03-22T08:18:58;95229.19;;;23.45;16.74
6134;BME280;3098;42.678;23.364;2024-03-22T08:21:24;95236.75;;;23.21;17.07
6134;BME280;3098;42.678;23.364;2024-03-22T08:23:51;95230.19;;;24.95;15.22
6134;BME280;3098;42.678;23.364;2024-03-22T08:26:17;95225.56;;;24.39;15.79
6134;BME280;3098;42.678;23.364;2024-03-22T08:28:44;95229.97;;;22.38;17.82
6134;BME280;3098;42.678;23.364;2024-03-22T08:31:10;95230.72;;;22.35;18.05
6134;BME280;3098;42.678;23.364;2024-03-22T08:33:36;95229.44;;;24.70;15.71
6134;BME280;3098;42.678;23.364;2024-03-22T08:36:02;95225.16;;;24.15;16.24
6134;BME280;3098;42.678;23.364;2024-03-22T08:38:27;95222.13;;;24.42;15.78
6134;BME280;3098;42.678;23.364;2024-03-22T08:40:53;95225.94;;;25.19;15.18
6134;BME280;3098;42.678;23.364;2024-03-22T08:43:19;95226.13;;;23.61;16.86
6134;BME280;3098;42.678;23.364;2024-03-22T08:45:47;95230.13;;;22.12;19.02
6134;BME280;3098;42.678;23.364;2024-03-22T08:48:12;95230.59;;;22.66;18.28
6134;BME280;3098;42.678;23.364;2024-03-22T08:50:38;95228.72;;;23.36;17.48
6134;BME280;3098;42.678;23.364;2024-03-22T08:53:04;95233.09;;;23.65;16.84
6134;BME280;3098;42.678;23.364;2024-03-22T08:55:32;95232.16;;;24.59;16.57
6134;BME280;3098;42.678;23.364;2024-03-22T08:57:57;95228.78;;;21.95;18.33
6134;BME280;3098;42.678;23.364;2024-03-22T09:00:23;95233.53;;;22.50;18.21
6134;BME280;3098;42.678;23.364;2024-03-22T09:02:48;95216.28;;;24.15;16.37
6134;BME280;3098;42.678;23.364;2024-03-22T09:05:14;95232.91;;;24.74;15.23
6134;BME280;3098;42.678;23.364;2024-03-22T09:07:41;95222.88;;;24.53;15.66
6134;BME280;3098;42.678;23.364;2024-03-22T09:10:07;95232.84;;;24.06;15.72
6134;BME280;3098;42.678;23.364;2024-03-22T09:12:34;95230.19;;;24.31;15.73
6134;BME280;3098;42.678;23.364;2024-03-22T09:14:59;95214.16;;;20.49;19.21
6134;BME280;3098;42.678;23.364;2024-03-22T09:17:26;95199.72;;;21.10;19.83
6134;BME280;3098;42.678;23.364;2024-03-22T09:19:52;95211.13;;;22.90;17.39
6134;BME280;3098;42.678;23.364;2024-03-22T09:22:18;95213.84;;;23.67;16.46
6134;BME280;3098;42.678;23.364;2024-03-22T09:24:44;95207.94;;;23.40;16.51
6134;BME280;3098;42.678;23.364;2024-03-22T09:27:09;95190.69;;;21.52;18.60
6134;BME280;3098;42.678;23.364;2024-03-22T09:29:37;95198.81;;;20.99;18.93
6134;BME280;3098;42.678;23.364;2024-03-22T09:32:03;95200.19;;;21.80;18.44
6134;BME280;3098;42.678;23.364;2024-03-22T09:34:29;95198.81;;;22.89;17.84
6134;BME280;3098;42.678;23.364;2024-03-22T09:36:55;95196.97;;;22.97;18.11
6134;BME280;3098;42.678;23.364;2024-03-22T09:39:21;95196.06;;;22.30;17.49
6134;BME280;3098;42.678;23.364;2024-03-22T09:41:47;95195.97;;;21.45;18.53
6134;BME280;3098;42.678;23.364;2024-03-22T09:44:14;95190.50;;;21.38;17.83
6134;BME280;3098;42.678;23.364;2024-03-22T09:46:46;95194.78;;;21.76;18.31
6134;BME280;3098;42.678;23.364;2024-03-22T09:49:12;95194.75;;;21.39;18.84
6134;BME280;3098;42.678;23.364;2024-03-22T09:51:39;95194.69;;;20.52;18.95
6134;BME280;3098;42.678;23.364;2024-03-22T09:54:06;95189.25;;;20.02;19.47
6134;BME280;3098;42.678;23.364;2024-03-22T09:56:33;95180.72;;;19.16;20.90
6134;BME280;3098;42.678;23.364;2024-03-22T09:58:59;95184.84;;;20.37;19.62
6134;BME280;3098;42.678;23.364;2024-03-22T10:01:25;95172.47;;;20.55;20.20
6134;BME280;3098;42.678;23.364;2024-03-22T10:03:52;95180.63;;;20.13;20.25
6134;BME280;3098;42.678;23.364;2024-03-22T10:06:18;95177.25;;;20.92;19.68
6134;BME280;3098;42.678;23.364;2024-03-22T10:08:44;95184.13;;;21.23;19.50
6134;BME280;3098;42.678;23.364;2024-03-22T10:11:11;95170.28;;;21.88;18.50
6134;BME280;3098;42.678;23.364;2024-03-22T10:13:37;95172.28;;;21.24;18.46
6134;BME280;3098;42.678;23.364;2024-03-22T10:16:03;95175.97;;;20.33;20.08
6134;BME280;3098;42.678;23.364;2024-03-22T10:18:32;95168.91;;;19.78;21.01
6134;BME280;3098;42.678;23.364;2024-03-22T10:21:04;95163.19;;;20.26;20.28
6134;BME280;3098;42.678;23.364;2024-03-22T10:23:30;95171.34;;;21.77;19.30
6134;BME280;3098;42.678;23.364;2024-03-22T10:25:57;95162.41;;;21.69;18.36
6134;BME280;3098;42.678;23.364;2024-03-22T10:28:26;95160.13;;;20.01;20.26
6134;BME280;3098;42.678;23.364;2024-03-22T10:30:53;95158.53;;;20.00;20.09
6134;BME280;3098;42.678;23.364;2024-03-22T10:33:22;95161.31;;;19.22;20.87
6134;BME280;3098;42.678;23.364;2024-03-22T10:35:54;95157.59;;;19.66;20.25
6134;BME280;3098;42.678;23.364;2024-03-22T10:38:20;95146.03;;;20.08;19.76
6134;BME280;3098;42.678;23.364;2024-03-22T10:40:47;95140.91;;;19.76;20.21
6134;BME280;3098;42.678;23.364;2024-03-22T10:43:16;95144.38;;;19.57;21.37
6134;BME280;3098;42.678;23.364;2024-03-22T10:45:42;95135.91;;;19.74;19.92
6134;BME280;3098;42.678;23.364;2024-03-22T10:48:11;95135.47;;;19.72;20.26
6134;BME280;3098;42.678;23.364;2024-03-22T10:50:41;95136.91;;;20.62;19.07
6134;BME280;3098;42.678;23.364;2024-03-22T10:53:21;95126.00;;;20.78;19.57
6134;BME280;3098;42.678;23.364;2024-03-22T10:55:50;95126.66;;;20.67;18.47
6134;BME280;3098;42.678;23.364;2024-03-22T10:58:25;95136.69;;;19.98;20.38
6134;BME280;3098;42.678;23.364;2024-03-22T11:00:55;95136.13;;;19.46;20.31
6134;BME280;3098;42.678;23.364;2024-03-22T11:03:23;95130.00;;;18.88;20.77
6134;BME280;3098;42.678;23.364;2024-03-22T11:05:54;95130.44;;;17.87;22.67
6134;BME280;3098;42.678;23.364;2024-03-22T11:08:27;95125.84;;;18.04;21.84
6134;BME280;3098;42.678;23.364;2024-03-22T11:10:54;95118.06;;;18.66;22.03
6134;BME280;3098;42.678;23.364;2024-03-22T11:13:19;95107.06;;;18.71;22.68
6134;BME280;3098;42.678;23.364;2024-03-22T11:15:49;95109.22;;;18.46;21.58
6134;BME280;3098;42.678;23.364;2024-03-22T11:18:15;95105.38;;;18.63;21.39
6134;BME280;3098;42.678;23.364;2024-03-22T11:20:42;95105.22;;;18.55;21.02
6134;BME280;3098;42.678;23.364;2024-03-22T11:23:08;95112.38;;;18.00;21.43
6134;BME280;3098;42.678;23.364;2024-03-22T11:25:34;95113.47;;;17.52;22.18
6134;BME280;3098;42.678;23.364;2024-03-22T11:28:00;95104.22;;;17.05;23.39
6134;BME280;3098;42.678;23.364;2024-03-22T11:30:32;95105.81;;;17.22;23.63
6134;BME280;3098;42.678;23.364;2024-03-22T11:33:00;95104.88;;;17.30;23.07
6134;BME280;3098;42.678;23.364;2024-03-22T11:35:26;95094.63;;;18.08;22.43
6134;BME280;3098;42.678;23.364;2024-03-22T11:37:51;95096.81;;;17.42;22.33
6134;BME280;3098;42.678;23.364;2024-03-22T11:40:18;95088.75;;;17.71;21.78
6134;BME280;3098;42.678;23.364;2024-03-22T11:42:46;95085.91;;;17.20;22.16
6134;BME280;3098;42.678;23.364;2024-03-22T11:45:14;95089.09;;;17.69;22.14
6134;BME280;3098;42.678;23.364;2024-03-22T11:47:40;95085.81;;;17.16;22.71
6134;BME280;3098;42.678;23.364;2024-03-22T11:50:07;95083.94;;;16.88;22.60
6134;BME280;3098;42.678;23.364;2024-03-22T11:52:32;95073.84;;;16.69;23.58
6134;BME280;3098;42.678;23.364;2024-03-22T11:54:58;95074.19;;;16.15;23.67
6134;BME280;3098;42.678;23.364;2024-03-22T11:57:24;95066.78;;;16.61;23.54
6134;BME280;3098;42.678;23.364;2024-03-22T11:59:50;95069.03;;;16.87;23.57
6134;BME280;3098;42.678;23.364;2024-03-22T12:02:16;95058.38;;;16.47;24.97
6134;BME280;3098;42.678;23.364;2024-03-22T12:04:43;95050.19;;;17.24;23.01
6134;BME280;3098;42.678;23.364;2024-03-22T12:07:13;95055.53;;;17.40;23.01
6134;BME280;3098;42.678;23.364;2024-03-22T12:09:42;95053.47;;;17.49;23.28
6134;BME280;3098;42.678;23.364;2024-03-22T12:12:10;95052.78;;;17.68;22.52
6134;BME280;3098;42.678;23.364;2024-03-22T12:14:36;95055.53;;;18.03;21.46
6134;BME280;3098;42.678;23.364;2024-03-22T12:17:02;95045.38;;;17.93;22.30
6134;BME280;3098;42.678;23.364;2024-03-22T12:19:28;95047.28;;;17.01;22.42
6134;BME280;3098;42.678;23.364;2024-03-22T12:21:54;95040.22;;;16.93;23.17
6134;BME280;3098;42.678;23.364;2024-03-22T12:24:20;95041.00;;;16.01;23.89
6134;BME280;3098;42.678;23.364;2024-03-22T12:26:46;95031.13;;;15.89;24.53
6134;BME280;3098;42.678;23.364;2024-03-22T12:29:13;95032.78;;;15.81;24.39
6134;BME280;3098;42.678;23.364;2024-03-22T12:31:39;95018.56;;;14.62;26.32
6134;BME280;3098;42.678;23.364;2024-03-22T12:34:05;95018.03;;;14.05;27.28
6134;BME280;3098;42.678;23.364;2024-03-22T12:36:30;95025.88;;;14.23;27.52
6134;BME280;3098;42.678;23.364;2024-03-22T12:38:57;95024.56;;;13.87;27.11
6134;BME280;3098;42.678;23.364;2024-03-22T12:41:23;95020.69;;;13.76;27.86
6134;BME280;3098;42.678;23.364;2024-03-22T12:43:48;95021.28;;;13.81;28.20
6134;BME280;3098;42.678;23.364;2024-03-22T12:46:14;95011.28;;;13.87;26.63
6134;BME280;3098;42.678;23.364;2024-03-22T12:48:40;95020.66;;;13.55;28.14
6134;BME280;3098;42.678;23.364;2024-03-22T12:51:06;95021.25;;;13.90;27.37
6134;BME280;3098;42.678;23.364;2024-03-22T12:53:32;95019.31;;;14.50;26.92
6134;BME280;3098;42.678;23.364;2024-03-22T12:55:57;95010.75;;;14.77;26.35
6134;BME280;3098;42.678;23.364;2024-03-22T12:58:23;95013.69;;;14.97;25.68
6134;BME280;3098;42.678;23.364;2024-03-22T13:00:48;95004.59;;;14.98;26.58
6134;BME280;3098;42.678;23.364;2024-03-22T13:03:14;95007.28;;;14.23;27.39
6134;BME280;3098;42.678;23.364;2024-03-22T13:05:41;95004.03;;;14.17;27.13
6134;BME280;3098;42.678;23.364;2024-03-22T13:08:07;94996.31;;;14.24;27.00
6134;BME280;3098;42.678;23.364;2024-03-22T13:10:33;95010.69;;;14.44;26.50
6134;BME280;3098;42.678;23.364;2024-03-22T13:12:59;95003.69;;;14.82;26.20